createdAt,value
2019-02-10T00:00:39.882Z,79.00
2019-02-10T00:01:39.792Z,79.00
2019-02-10T00:02:39.790Z,79.10
2019-02-10T00:03:40.977Z,79.24
2019-02-10T00:04:39.759Z,79.34
2019-02-10T00:05:39.749Z,79.61
2019-02-10T00:06:39.781Z,79.34
2019-02-10T00:07:39.723Z,79.10
2019-02-10T00:08:39.717Z,79.30
2019-02-10T00:09:39.713Z,79.61
2019-02-10T00:10:39.699Z,79.41
2019-02-10T00:11:39.703Z,79.30
2019-02-10T00:12:39.702Z,79.24
2019-02-10T00:13:39.660Z,79.30
2019-02-10T00:14:39.646Z,79.10
2019-02-10T00:15:39.637Z,79.30
2019-02-10T00:16:39.648Z,79.51
2019-02-10T00:17:39.617Z,79.30
2019-02-10T00:18:39.615Z,79.30
2019-02-10T00:19:39.592Z,79.51
2019-02-10T00:20:39.583Z,79.20
2019-02-10T00:21:39.595Z,79.20
2019-02-10T00:22:39.558Z,79.51
2019-02-10T00:23:39.547Z,79.30
2019-02-10T00:24:39.563Z,79.16
2019-02-10T00:25:39.531Z,79.20
2019-02-10T00:26:39.538Z,79.34
2019-02-10T00:27:39.521Z,79.30
2019-02-10T00:28:39.493Z,79.10
2019-02-10T00:29:39.482Z,79.34
2019-02-10T00:30:39.496Z,79.30
2019-02-10T00:31:39.482Z,79.41
2019-02-10T00:32:39.452Z,79.30
2019-02-10T00:33:39.450Z,79.65
2019-02-10T00:34:39.449Z,79.65
2019-02-10T00:35:39.415Z,80.02
2019-02-10T00:36:39.453Z,79.65
2019-02-10T00:37:39.393Z,79.75
2019-02-10T00:38:39.385Z,79.55
2019-02-10T00:39:39.371Z,79.75
2019-02-10T00:40:39.359Z,79.55
2019-02-10T00:41:39.404Z,80.06
2019-02-10T00:42:39.353Z,79.65
2019-02-10T00:43:39.327Z,79.34
2019-02-10T00:44:39.317Z,79.44
2019-02-10T00:45:39.306Z,79.44
2019-02-10T00:46:39.317Z,79.44
2019-02-10T00:47:39.283Z,79.24
2019-02-10T00:48:39.276Z,79.65
2019-02-10T00:49:39.272Z,79.41
2019-02-10T00:50:39.272Z,79.41
2019-02-10T00:51:39.262Z,79.20
2019-02-10T00:52:39.228Z,79.10
2019-02-10T00:53:39.216Z,79.41
2019-02-10T00:54:39.208Z,79.10
2019-02-10T00:55:39.194Z,78.58
2019-02-10T00:56:39.227Z,78.79
2019-02-10T00:57:39.172Z,79.30
2019-02-10T00:58:39.161Z,79.51
2019-02-10T00:59:39.149Z,79.51
2019-02-10T01:00:39.138Z,79.20
2019-02-10T01:01:39.154Z,78.79
2019-02-10T01:02:39.136Z,78.89
2019-02-10T01:03:39.106Z,79.30
2019-02-10T01:04:39.106Z,79.51
2019-02-10T01:05:39.084Z,79.30
2019-02-10T01:06:41.402Z,79.41
2019-02-10T01:07:39.062Z,79.93
2019-02-10T01:08:39.075Z,80.02
2019-02-10T01:09:39.037Z,79.82
2019-02-10T01:10:39.028Z,79.61
2019-02-10T01:11:39.893Z,80.16
2019-02-10T01:12:39.004Z,79.82
2019-02-10T01:13:39.013Z,80.37
2019-02-10T01:14:38.996Z,79.14
2019-02-10T01:15:38.973Z,80.58
2019-02-10T01:16:38.990Z,80.37
2019-02-10T01:17:38.948Z,79.96
2019-02-10T01:18:38.939Z,80.47
2019-02-10T01:19:38.926Z,80.27
2019-02-10T01:20:38.940Z,80.27
2019-02-10T01:21:38.929Z,80.37
2019-02-10T01:22:38.894Z,79.96
2019-02-10T01:23:38.882Z,80.37
2019-02-10T01:24:38.873Z,80.27
2019-02-10T01:25:38.862Z,80.37
2019-02-10T01:26:38.871Z,80.89
2019-02-10T01:27:38.855Z,81.71
2019-02-10T01:28:38.828Z,81.75
2019-02-10T01:29:38.816Z,80.89
2019-02-10T01:30:38.809Z,82.12
2019-02-10T01:31:38.817Z,81.09
2019-02-10T01:32:38.785Z,80.99
2019-02-10T01:33:38.780Z,81.54
2019-02-10T01:34:38.763Z,81.75
2019-02-10T01:35:38.748Z,81.44
2019-02-10T01:36:38.764Z,82.16
2019-02-10T01:37:38.728Z,82.37
2019-02-10T01:38:38.716Z,82.06
2019-02-10T01:39:38.715Z,82.16
2019-02-10T01:40:38.694Z,82.37
2019-02-10T01:41:38.708Z,82.40
2019-02-10T01:42:38.675Z,83.64
2019-02-10T01:43:38.660Z,83.33
2019-02-10T01:44:38.666Z,83.23
2019-02-10T01:45:38.639Z,83.33
2019-02-10T01:46:38.663Z,83.44
2019-02-10T01:47:38.618Z,83.54
2019-02-10T01:48:38.609Z,83.33
2019-02-10T01:49:38.625Z,83.85
2019-02-10T01:50:38.586Z,83.89
2019-02-10T01:51:38.574Z,84.06
2019-02-10T01:52:38.583Z,83.75
2019-02-10T01:53:38.549Z,84.30
2019-02-10T01:54:38.539Z,84.16
2019-02-10T01:55:38.539Z,84.06
2019-02-10T01:56:38.516Z,83.99
2019-02-10T01:57:38.528Z,84.16
2019-02-10T01:58:38.499Z,84.41
2019-02-10T01:59:38.504Z,84.47
2019-02-10T02:00:38.474Z,84.16
2019-02-10T02:01:38.499Z,84.27
2019-02-10T02:02:38.473Z,84.27
2019-02-10T02:03:38.439Z,84.27
2019-02-10T02:04:38.435Z,84.27
2019-02-10T02:05:38.417Z,84.16
2019-02-10T02:06:38.406Z,84.16
2019-02-10T02:07:38.456Z,83.61
2019-02-10T02:08:38.409Z,83.85
2019-02-10T02:09:38.375Z,83.61
2019-02-10T02:10:38.362Z,83.61
2019-02-10T02:11:38.350Z,83.54
2019-02-10T02:12:38.362Z,83.33
2019-02-10T02:13:38.357Z,83.44
2019-02-10T02:14:38.318Z,83.75
2019-02-10T02:15:38.307Z,83.95
2019-02-10T02:16:38.296Z,83.95
2019-02-10T02:17:38.311Z,84.16
2019-02-10T02:18:38.273Z,84.16
2019-02-10T02:19:38.292Z,84.47
2019-02-10T02:20:38.257Z,84.36
2019-02-10T02:21:38.241Z,84.47
2019-02-10T02:22:38.256Z,84.36
2019-02-10T02:23:38.219Z,84.27
2019-02-10T02:24:38.211Z,84.27
2019-02-10T02:25:38.229Z,84.47
2019-02-10T02:26:38.186Z,84.01
2019-02-10T02:27:38.199Z,83.91
2019-02-10T02:28:38.172Z,84.06
2019-02-10T02:29:38.164Z,83.85
2019-02-10T02:30:38.142Z,83.64
2019-02-10T02:31:38.154Z,83.71
2019-02-10T02:32:38.145Z,83.61
2019-02-10T02:33:38.110Z,83.50
2019-02-10T02:34:38.103Z,83.81
2019-02-10T02:35:38.098Z,83.54
2019-02-10T02:36:38.080Z,83.40
2019-02-10T02:37:38.129Z,83.54
2019-02-10T02:38:38.053Z,83.75
2019-02-10T02:39:38.044Z,84.12
2019-02-10T02:40:38.037Z,83.29
2019-02-10T02:41:38.052Z,83.40
2019-02-10T02:42:38.036Z,83.50
2019-02-10T02:43:38.020Z,83.40
2019-02-10T02:44:37.996Z,83.40
2019-02-10T02:45:37.980Z,84.12
2019-02-10T02:46:37.967Z,83.71
2019-02-10T02:47:37.981Z,84.36
2019-02-10T02:48:37.946Z,84.84
2019-02-10T02:49:37.994Z,85.25
2019-02-10T02:50:37.924Z,85.30
2019-02-10T02:51:37.935Z,85.46
2019-02-10T02:52:37.926Z,85.81
2019-02-10T02:53:37.891Z,86.53
2019-02-10T02:54:37.879Z,87.08
2019-02-10T02:55:37.881Z,86.74
2019-02-10T02:56:37.868Z,87.35
2019-02-10T02:57:37.870Z,87.19
2019-02-10T02:58:37.834Z,87.71
2019-02-10T02:59:37.837Z,88.43
2019-02-10T03:00:37.814Z,88.43
2019-02-10T03:01:37.826Z,88.53
2019-02-10T03:02:37.817Z,88.64
2019-02-10T03:03:37.781Z,88.53
2019-02-10T03:04:37.770Z,88.22
2019-02-10T03:05:37.757Z,88.53
2019-02-10T03:06:37.748Z,89.05
2019-02-10T03:07:37.794Z,88.95
2019-02-10T03:08:37.727Z,88.74
2019-02-10T03:09:37.714Z,88.98
2019-02-10T03:10:37.713Z,90.08
2019-02-10T03:11:37.691Z,89.87
2019-02-10T03:12:37.705Z,89.71
2019-02-10T03:13:37.698Z,90.12
2019-02-10T03:14:37.657Z,90.64
2019-02-10T03:15:37.647Z,90.84
2019-02-10T03:16:37.662Z,91.26
2019-02-10T03:17:37.662Z,91.67
2019-02-10T03:18:37.615Z,91.16
2019-02-10T03:19:37.623Z,91.36
2019-02-10T03:20:37.594Z,91.88
2019-02-10T03:21:37.579Z,91.77
2019-02-10T03:22:37.591Z,91.36
2019-02-10T03:23:37.557Z,91.77
2019-02-10T03:24:37.545Z,91.88
2019-02-10T03:25:37.553Z,91.16
2019-02-10T03:26:37.524Z,91.98
2019-02-10T03:27:37.539Z,91.88
2019-02-10T03:28:37.501Z,91.88
2019-02-10T03:29:37.490Z,91.82
2019-02-10T03:30:37.482Z,92.29
2019-02-10T03:31:37.509Z,92.19
2019-02-10T03:32:37.473Z,91.88
2019-02-10T03:33:37.469Z,92.91
2019-02-10T03:34:37.436Z,92.70
2019-02-10T03:35:37.425Z,93.01
2019-02-10T03:36:37.412Z,92.85
2019-02-10T03:37:37.404Z,92.95
2019-02-10T03:38:37.430Z,93.26
2019-02-10T03:39:37.383Z,93.26
2019-02-10T03:40:37.369Z,93.68
2019-02-10T03:41:37.358Z,94.09
2019-02-10T03:42:37.350Z,93.57
2019-02-10T03:43:37.360Z,94.09
2019-02-10T03:44:37.345Z,94.09
2019-02-10T03:45:37.326Z,93.47
2019-02-10T03:46:37.301Z,93.47
2019-02-10T03:47:37.290Z,94.19
2019-02-10T03:48:37.306Z,94.09
2019-02-10T03:49:37.269Z,94.19
2019-02-10T03:50:37.261Z,94.09
2019-02-10T03:51:37.257Z,94.19
2019-02-10T03:52:37.237Z,93.98
2019-02-10T03:53:37.248Z,94.29
2019-02-10T03:54:37.215Z,94.40
2019-02-10T03:55:37.202Z,94.34
2019-02-10T03:56:37.194Z,94.09
2019-02-10T03:57:37.217Z,94.71
2019-02-10T03:58:37.258Z,94.19
2019-02-10T03:59:37.160Z,94.19
2019-02-10T04:00:37.150Z,94.09
2019-02-10T04:01:37.140Z,94.92
2019-02-10T04:02:37.136Z,95.12
2019-02-10T04:03:37.140Z,95.02
2019-02-10T04:04:37.137Z,93.88
2019-02-10T04:05:37.093Z,94.29
2019-02-10T04:06:37.080Z,94.29
2019-02-10T04:07:37.077Z,95.22
2019-02-10T04:08:37.083Z,95.12
2019-02-10T04:09:37.047Z,94.92
2019-02-10T04:10:37.040Z,94.29
2019-02-10T04:11:37.036Z,94.09
2019-02-10T04:12:37.014Z,94.09
2019-02-10T04:13:37.025Z,93.88
2019-02-10T04:14:36.990Z,93.78
2019-02-10T04:15:36.980Z,94.19
2019-02-10T04:16:36.971Z,94.40
2019-02-10T04:17:36.967Z,94.96
2019-02-10T04:18:36.975Z,95.17
2019-02-10T04:19:36.937Z,94.71
2019-02-10T04:20:36.925Z,94.19
2019-02-10T04:21:36.914Z,94.19
2019-02-10T04:22:36.902Z,93.98
2019-02-10T04:23:36.920Z,94.60
2019-02-10T04:24:36.887Z,94.19
2019-02-10T04:25:36.880Z,94.19
2019-02-10T04:26:36.861Z,94.09
2019-02-10T04:27:36.848Z,93.78
2019-02-10T04:28:36.859Z,94.09
2019-02-10T04:29:36.836Z,93.78
2019-02-10T04:30:36.831Z,94.09
2019-02-10T04:31:36.807Z,93.57
2019-02-10T04:32:36.795Z,93.57
2019-02-10T04:33:36.805Z,94.60
2019-02-10T04:34:36.770Z,94.09
2019-02-10T04:35:36.780Z,94.09
2019-02-10T04:36:36.746Z,94.71
2019-02-10T04:37:45.047Z,94.40
2019-02-10T04:38:37.745Z,94.71
2019-02-10T04:39:36.713Z,95.22
2019-02-10T04:40:36.702Z,94.56
2019-02-10T04:41:36.694Z,95.12
2019-02-10T04:42:36.680Z,95.12
2019-02-10T04:43:36.709Z,95.12
2019-02-10T04:44:36.657Z,95.22
2019-02-10T04:45:36.655Z,94.81
2019-02-10T04:46:36.635Z,94.81
2019-02-10T04:47:36.627Z,94.92
2019-02-10T04:48:36.642Z,94.29
2019-02-10T04:49:36.613Z,94.15
2019-02-10T04:50:36.596Z,93.43
2019-02-10T04:51:36.581Z,93.73
2019-02-10T04:52:36.570Z,94.25
2019-02-10T04:53:36.581Z,94.04
2019-02-10T04:54:36.561Z,94.04
2019-02-10T04:55:36.566Z,94.15
2019-02-10T04:56:36.537Z,93.84
2019-02-10T04:57:36.518Z,94.04
2019-02-10T04:58:36.526Z,94.04
2019-02-10T04:59:36.493Z,94.10
2019-02-10T05:00:36.483Z,94.15
2019-02-10T05:01:36.480Z,94.04
2019-02-10T05:02:36.461Z,93.73
2019-02-10T05:03:36.475Z,93.49
2019-02-10T05:04:36.436Z,93.90
2019-02-10T05:05:36.425Z,93.79
2019-02-10T05:06:36.416Z,93.69
2019-02-10T05:07:36.430Z,93.49
2019-02-10T05:08:36.422Z,93.79
2019-02-10T05:09:36.383Z,93.84
2019-02-10T05:10:36.370Z,94.00
2019-02-10T05:11:36.359Z,93.69
2019-02-10T05:12:36.350Z,93.49
2019-02-10T05:13:36.472Z,94.00
2019-02-10T05:14:36.326Z,93.69
2019-02-10T05:15:36.314Z,93.38
2019-02-10T05:16:36.303Z,93.18
2019-02-10T05:17:36.293Z,93.28
2019-02-10T05:18:36.283Z,92.97
2019-02-10T05:19:36.301Z,93.44
2019-02-10T05:20:36.258Z,93.59
2019-02-10T05:21:36.248Z,93.65
2019-02-10T05:22:36.238Z,93.34
2019-02-10T05:23:36.230Z,93.13
2019-02-10T05:24:36.239Z,93.13
2019-02-10T05:25:36.217Z,92.82
2019-02-10T05:26:36.196Z,93.03
2019-02-10T05:27:36.186Z,93.13
2019-02-10T05:28:36.177Z,92.61
2019-02-10T05:29:36.186Z,92.37
2019-02-10T05:30:36.149Z,92.06
2019-02-10T05:31:36.168Z,91.96
2019-02-10T05:32:36.128Z,92.06
2019-02-10T05:33:36.116Z,92.99
2019-02-10T05:34:36.134Z,92.99
2019-02-10T05:35:36.096Z,92.57
2019-02-10T05:36:36.084Z,92.57
2019-02-10T05:37:36.111Z,92.94
2019-02-10T05:38:36.067Z,92.94
2019-02-10T05:39:36.074Z,92.06
2019-02-10T05:40:36.040Z,91.71
2019-02-10T05:41:36.032Z,91.60
2019-02-10T05:42:36.017Z,91.40
2019-02-10T05:43:36.044Z,91.50
2019-02-10T05:44:36.019Z,91.19
2019-02-10T05:45:35.984Z,91.40
2019-02-10T05:46:35.975Z,91.91
2019-02-10T05:47:35.966Z,91.71
2019-02-10T05:48:35.951Z,91.71
2019-02-10T05:49:35.976Z,91.60
2019-02-10T05:50:35.930Z,91.30
2019-02-10T05:51:35.917Z,91.60
2019-02-10T05:52:35.909Z,91.50
2019-02-10T05:53:35.898Z,91.09
2019-02-10T05:54:35.909Z,91.15
2019-02-10T05:55:35.898Z,91.05
2019-02-10T05:56:35.865Z,91.60
2019-02-10T05:57:35.853Z,91.36
2019-02-10T05:58:35.843Z,90.53
2019-02-10T05:59:35.859Z,90.73
2019-02-10T06:00:35.819Z,90.84
2019-02-10T06:01:35.815Z,91.56
2019-02-10T06:02:35.799Z,91.05
2019-02-10T06:03:35.785Z,91.05
2019-02-10T06:04:35.804Z,91.15
2019-02-10T06:05:35.766Z,91.15
2019-02-10T06:06:35.753Z,90.43
2019-02-10T06:07:35.758Z,90.73
2019-02-10T06:08:35.732Z,90.43
2019-02-10T06:09:35.746Z,89.87
2019-02-10T06:10:35.710Z,90.84
2019-02-10T06:11:35.702Z,90.33
2019-02-10T06:12:35.688Z,90.69
2019-02-10T06:13:35.685Z,90.90
2019-02-10T06:14:35.694Z,90.43
2019-02-10T06:15:35.656Z,90.69
2019-02-10T06:16:35.644Z,90.49
2019-02-10T06:17:35.632Z,90.18
2019-02-10T06:18:35.623Z,90.18
2019-02-10T06:19:35.657Z,89.36
2019-02-10T06:20:35.600Z,89.97
2019-02-10T06:21:35.589Z,89.77
2019-02-10T06:22:35.580Z,90.28
2019-02-10T06:23:35.567Z,89.77
2019-02-10T06:24:35.578Z,89.94
2019-02-10T06:25:35.555Z,90.08
2019-02-10T06:26:35.534Z,89.36
2019-02-10T06:27:35.523Z,89.31
2019-02-10T06:28:35.511Z,89.73
2019-02-10T06:29:35.523Z,89.62
2019-02-10T06:30:35.503Z,89.83
2019-02-10T06:31:35.503Z,89.83
2019-02-10T06:32:35.469Z,89.83
2019-02-10T06:33:35.457Z,89.73
2019-02-10T06:34:35.472Z,89.62
2019-02-10T06:35:35.436Z,89.62
2019-02-10T06:36:35.432Z,89.62
2019-02-10T06:37:35.419Z,88.70
2019-02-10T06:38:35.401Z,88.49
2019-02-10T06:39:35.413Z,88.86
2019-02-10T06:40:35.382Z,88.45
2019-02-10T06:41:35.369Z,88.35
2019-02-10T06:42:35.359Z,88.76
2019-02-10T06:43:35.360Z,88.45
2019-02-10T06:44:35.360Z,88.96
2019-02-10T06:45:35.327Z,89.03
2019-02-10T06:46:35.311Z,88.86
2019-02-10T06:47:35.300Z,88.86
2019-02-10T06:48:35.295Z,88.45
2019-02-10T06:49:35.320Z,89.75
2019-02-10T06:50:35.270Z,89.79
2019-02-10T06:51:35.259Z,89.79
2019-02-10T06:52:35.246Z,89.48
2019-02-10T06:53:35.235Z,89.58
2019-02-10T06:54:35.249Z,89.48
2019-02-10T06:55:35.233Z,89.89
2019-02-10T06:56:35.200Z,89.38
2019-02-10T06:57:35.188Z,89.28
2019-02-10T06:58:35.176Z,89.79
2019-02-10T06:59:35.167Z,89.44
2019-02-10T07:00:35.176Z,89.64
2019-02-10T07:01:35.154Z,89.85
2019-02-10T07:02:35.132Z,89.85
2019-02-10T07:03:35.121Z,89.79
2019-02-10T07:04:35.110Z,90.88
2019-02-10T07:05:35.124Z,90.51
2019-02-10T07:06:35.088Z,90.09
2019-02-10T07:07:35.080Z,90.57
2019-02-10T07:08:35.111Z,90.09
2019-02-10T07:09:35.054Z,90.61
2019-02-10T07:10:35.066Z,90.51
2019-02-10T07:11:35.031Z,90.72
2019-02-10T07:12:35.021Z,90.51
2019-02-10T07:13:35.009Z,90.98
2019-02-10T07:14:35.005Z,90.57
2019-02-10T07:15:35.009Z,90.26
2019-02-10T07:16:34.976Z,90.36
2019-02-10T07:17:34.965Z,90.51
2019-02-10T07:18:34.953Z,90.30
2019-02-10T07:19:34.944Z,90.67
2019-02-10T07:20:34.987Z,90.67
2019-02-10T07:21:34.921Z,90.06
2019-02-10T07:22:34.909Z,90.26
2019-02-10T07:23:34.897Z,89.23
2019-02-10T07:24:34.888Z,89.64
2019-02-10T07:25:34.899Z,89.64
2019-02-10T07:26:34.876Z,89.03
2019-02-10T07:27:34.855Z,89.44
2019-02-10T07:28:34.842Z,89.64
2019-02-10T07:29:34.830Z,90.88
2019-02-10T07:30:34.841Z,90.26
2019-02-10T07:31:34.808Z,89.75
2019-02-10T07:32:34.817Z,89.44
2019-02-10T07:33:34.785Z,88.62
2019-02-10T07:34:34.777Z,88.68
2019-02-10T07:35:34.791Z,88.47
2019-02-10T07:36:34.753Z,88.62
2019-02-10T07:37:34.741Z,88.47
2019-02-10T07:38:38.795Z,88.51
2019-02-10T07:39:34.718Z,88.31
2019-02-10T07:40:34.729Z,88.51
2019-02-10T07:41:34.698Z,87.45
2019-02-10T07:42:34.685Z,88.17
2019-02-10T07:43:34.674Z,87.85
2019-02-10T07:44:34.699Z,88.68
2019-02-10T07:45:34.678Z,87.45
2019-02-10T07:46:34.639Z,86.72
2019-02-10T07:47:34.632Z,86.27
2019-02-10T07:48:34.621Z,87.04
2019-02-10T07:49:34.607Z,86.52
2019-02-10T07:50:35.757Z,86.83
2019-02-10T07:51:34.585Z,85.86
2019-02-10T07:52:34.573Z,85.80
2019-02-10T07:53:34.563Z,85.76
2019-02-10T07:54:42.001Z,85.97
2019-02-10T07:55:35.562Z,85.46
2019-02-10T07:56:34.548Z,85.46
2019-02-10T07:57:34.518Z,85.35
2019-02-10T07:58:34.505Z,84.84
2019-02-10T07:59:34.496Z,85.35
2019-02-10T08:00:34.514Z,85.14
2019-02-10T08:01:34.473Z,85.35
2019-02-10T08:02:34.493Z,85.66
2019-02-10T08:03:34.465Z,85.25
2019-02-10T08:04:34.440Z,85.25
2019-02-10T08:05:34.451Z,84.32
2019-02-10T08:06:34.418Z,84.32
2019-02-10T08:07:34.406Z,85.46
2019-02-10T08:08:34.395Z,84.32
2019-02-10T08:09:34.395Z,84.63
2019-02-10T08:10:34.398Z,85.46
2019-02-10T08:11:34.361Z,84.42
2019-02-10T08:12:34.350Z,84.01
2019-02-10T08:13:34.340Z,84.12
2019-02-10T08:14:34.328Z,83.67
2019-02-10T08:15:34.345Z,83.46
2019-02-10T08:16:34.328Z,83.05
2019-02-10T08:17:34.295Z,83.26
2019-02-10T08:18:34.284Z,83.46
2019-02-10T08:19:34.275Z,82.95
2019-02-10T08:20:34.295Z,83.15
2019-02-10T08:21:34.251Z,82.75
2019-02-10T08:22:34.287Z,83.77
2019-02-10T08:23:34.228Z,83.67
2019-02-10T08:24:34.217Z,83.87
2019-02-10T08:25:34.228Z,83.67
2019-02-10T08:26:34.194Z,84.39
2019-02-10T08:27:34.186Z,83.46
2019-02-10T08:28:34.184Z,83.36
2019-02-10T08:29:34.160Z,82.95
2019-02-10T08:30:34.172Z,82.95
2019-02-10T08:31:34.141Z,83.73
2019-02-10T08:32:34.129Z,83.36
2019-02-10T08:33:34.117Z,83.53
2019-02-10T08:34:34.111Z,83.56
2019-02-10T08:35:34.117Z,83.05
2019-02-10T08:36:34.082Z,83.53
2019-02-10T08:37:34.073Z,83.26
2019-02-10T08:38:34.062Z,83.15
2019-02-10T08:39:34.050Z,83.26
2019-02-10T08:40:34.074Z,82.95
2019-02-10T08:41:34.053Z,82.81
2019-02-10T08:42:34.028Z,83.12
2019-02-10T08:43:34.007Z,81.95
2019-02-10T08:44:33.994Z,82.50
2019-02-10T08:45:33.985Z,82.19
2019-02-10T08:46:34.004Z,82.29
2019-02-10T08:47:34.086Z,83.12
2019-02-10T08:48:33.949Z,83.12
2019-02-10T08:49:33.942Z,83.01
2019-02-10T08:50:33.930Z,83.12
2019-02-10T08:51:33.940Z,82.70
2019-02-10T08:52:33.921Z,82.70
2019-02-10T08:53:33.896Z,82.91
2019-02-10T08:54:33.886Z,82.29
2019-02-10T08:55:33.875Z,81.99
2019-02-10T08:56:33.885Z,81.64
2019-02-10T08:57:33.855Z,83.22
2019-02-10T08:58:33.859Z,82.91
2019-02-10T08:59:33.830Z,82.09
2019-02-10T09:00:33.839Z,81.99
2019-02-10T09:01:33.834Z,83.22
2019-02-10T09:02:33.797Z,83.12
2019-02-10T09:03:33.785Z,82.81
2019-02-10T09:04:33.784Z,83.12
2019-02-10T09:05:33.767Z,82.70
2019-02-10T09:06:33.783Z,82.29
2019-02-10T09:07:33.741Z,81.85
2019-02-10T09:08:33.732Z,81.02
2019-02-10T09:09:33.731Z,81.02
2019-02-10T09:10:33.715Z,81.23
2019-02-10T09:11:33.726Z,81.13
2019-02-10T09:12:33.695Z,80.92
2019-02-10T09:13:33.677Z,81.74
2019-02-10T09:14:33.668Z,82.97
2019-02-10T09:15:33.655Z,83.12
2019-02-10T09:16:33.670Z,83.42
2019-02-10T09:17:33.633Z,83.53
2019-02-10T09:18:33.623Z,85.06
2019-02-10T09:19:33.627Z,85.06
2019-02-10T09:20:33.598Z,85.68
2019-02-10T09:21:33.609Z,85.52
2019-02-10T09:22:33.576Z,87.16
2019-02-10T09:23:33.583Z,86.24
2019-02-10T09:24:33.554Z,86.95
2019-02-10T09:25:33.544Z,87.05
2019-02-10T09:26:33.564Z,87.16
2019-02-10T09:27:33.524Z,87.37
2019-02-10T09:28:33.510Z,88.08
2019-02-10T09:29:33.513Z,87.77
2019-02-10T09:30:33.491Z,88.29
2019-02-10T09:31:33.500Z,88.59
2019-02-10T09:32:33.466Z,87.57
2019-02-10T09:33:33.455Z,88.18
2019-02-10T09:34:33.444Z,88.70
2019-02-10T09:35:33.432Z,89.04
2019-02-10T09:36:33.446Z,89.15
2019-02-10T09:37:33.418Z,89.62
2019-02-10T09:38:33.419Z,89.42
2019-02-10T09:39:33.421Z,89.36
2019-02-10T09:40:33.400Z,89.36
2019-02-10T09:41:33.399Z,89.66
2019-02-10T09:42:33.355Z,89.56
2019-02-10T09:43:33.356Z,89.46
2019-02-10T09:44:33.356Z,89.04
2019-02-10T09:45:33.329Z,90.18
2019-02-10T09:46:33.335Z,89.46
2019-02-10T09:47:33.359Z,89.76
2019-02-10T09:48:33.290Z,90.38
2019-02-10T09:49:33.278Z,90.38
2019-02-10T09:50:33.291Z,90.28
2019-02-10T09:51:33.298Z,91.00
2019-02-10T09:52:33.245Z,91.45
2019-02-10T09:53:33.247Z,91.00
2019-02-10T09:54:33.229Z,91.20
2019-02-10T09:55:33.214Z,91.35
2019-02-10T09:56:33.224Z,91.14
2019-02-10T09:57:33.190Z,91.31
2019-02-10T09:58:33.200Z,90.69
2019-02-10T09:59:33.169Z,90.59
2019-02-10T10:00:33.161Z,90.59
2019-02-10T10:01:33.167Z,90.59
2019-02-10T10:02:33.136Z,90.32
2019-02-10T10:03:33.128Z,90.89
2019-02-10T10:04:33.112Z,91.25
2019-02-10T10:05:33.127Z,91.14
2019-02-10T10:06:33.114Z,91.51
2019-02-10T10:07:33.080Z,91.86
2019-02-10T10:08:33.070Z,92.69
2019-02-10T10:09:33.058Z,92.38
2019-02-10T10:10:33.044Z,91.25
2019-02-10T10:11:33.061Z,90.80
2019-02-10T10:12:33.024Z,91.20
2019-02-10T10:13:33.011Z,90.89
2019-02-10T10:14:33.003Z,91.31
2019-02-10T10:15:32.997Z,91.20
2019-02-10T10:16:33.001Z,91.10
2019-02-10T10:17:32.992Z,91.10
2019-02-10T10:18:32.955Z,91.41
2019-02-10T10:19:32.963Z,91.72
2019-02-10T10:20:32.940Z,91.82
2019-02-10T10:21:32.920Z,91.82
2019-02-10T10:22:32.937Z,92.38
2019-02-10T10:23:32.902Z,92.69
2019-02-10T10:24:32.888Z,92.85
2019-02-10T10:25:32.938Z,92.17
2019-02-10T10:26:32.868Z,92.79
2019-02-10T10:27:32.883Z,92.69
2019-02-10T10:28:32.862Z,92.89
2019-02-10T10:29:32.837Z,92.89
2019-02-10T10:30:32.822Z,92.58
2019-02-10T10:31:32.813Z,92.58
2019-02-10T10:32:32.823Z,92.58
2019-02-10T10:33:32.829Z,92.79
2019-02-10T10:34:32.792Z,92.89
2019-02-10T10:35:32.765Z,92.69
2019-02-10T10:36:32.753Z,92.23
2019-02-10T10:37:32.770Z,91.86
2019-02-10T10:38:32.732Z,91.61
2019-02-10T10:39:32.726Z,92.17
2019-02-10T10:40:32.713Z,91.82
2019-02-10T10:41:32.718Z,92.64
2019-02-10T10:42:32.715Z,91.51
2019-02-10T10:43:32.694Z,91.31
2019-02-10T10:44:32.666Z,91.72
2019-02-10T10:45:32.654Z,91.51
2019-02-10T10:46:32.642Z,91.82
2019-02-10T10:47:32.672Z,91.10
2019-02-10T10:48:32.622Z,91.10
2019-02-10T10:49:32.614Z,91.82
2019-02-10T10:50:32.618Z,91.72
2019-02-10T10:51:32.606Z,91.82
2019-02-10T10:52:32.602Z,91.61
2019-02-10T10:53:32.595Z,92.03
2019-02-10T10:54:32.557Z,91.31
2019-02-10T10:55:32.558Z,91.41
2019-02-10T10:56:32.533Z,90.89
2019-02-10T10:57:32.563Z,90.89
2019-02-10T10:58:32.511Z,90.59
2019-02-10T10:59:32.510Z,90.28
2019-02-10T11:00:32.488Z,89.56
2019-02-10T11:01:32.478Z,88.95
2019-02-10T11:02:32.500Z,89.01
2019-02-10T11:03:32.469Z,89.72
2019-02-10T11:04:32.471Z,89.31
2019-02-10T11:05:32.444Z,89.46
2019-02-10T11:06:33.981Z,89.83
2019-02-10T11:07:32.491Z,89.15
2019-02-10T11:08:32.410Z,88.59
2019-02-10T11:09:35.563Z,89.15
2019-02-10T11:10:32.379Z,89.87
2019-02-10T11:11:32.382Z,88.33
2019-02-10T11:12:32.385Z,89.62
2019-02-10T11:13:32.344Z,88.90
2019-02-10T11:14:32.346Z,88.49
2019-02-10T11:15:32.327Z,88.29
2019-02-10T11:16:32.314Z,89.25
2019-02-10T11:17:32.332Z,89.66
2019-02-10T11:18:32.295Z,90.69
2019-02-10T11:19:32.281Z,90.59
2019-02-10T11:20:32.266Z,89.56
2019-02-10T11:21:32.273Z,90.08
2019-02-10T11:22:32.291Z,89.36
2019-02-10T11:23:32.234Z,89.97
2019-02-10T11:24:32.223Z,91.00
2019-02-10T11:25:32.239Z,90.59
2019-02-10T11:26:32.217Z,91.04
2019-02-10T11:27:32.223Z,91.10
2019-02-10T11:28:32.179Z,91.10
2019-02-10T11:29:32.172Z,91.31
2019-02-10T11:30:32.176Z,90.89
2019-02-10T11:31:32.145Z,91.10
2019-02-10T11:32:32.158Z,91.00
2019-02-10T11:33:32.120Z,91.51
2019-02-10T11:34:32.110Z,91.93
2019-02-10T11:35:32.100Z,91.82
2019-02-10T11:36:32.088Z,90.89
2019-02-10T11:37:32.113Z,91.20
2019-02-10T11:38:32.068Z,91.72
2019-02-10T11:39:32.055Z,91.72
2019-02-10T11:40:32.058Z,91.35
2019-02-10T11:41:32.047Z,90.80
2019-02-10T11:42:32.059Z,91.51
2019-02-10T11:43:32.028Z,91.31
2019-02-10T11:44:32.005Z,90.18
2019-02-10T11:45:32.008Z,90.59
2019-02-10T11:46:31.986Z,91.00
2019-02-10T11:47:31.990Z,91.14
2019-02-10T11:48:31.954Z,91.10
2019-02-10T11:49:31.944Z,91.72
2019-02-10T11:50:31.930Z,92.64
2019-02-10T11:51:31.919Z,92.69
2019-02-10T11:52:31.932Z,92.58
2019-02-10T11:53:31.909Z,92.58
2019-02-10T11:54:31.888Z,92.38
2019-02-10T11:55:31.894Z,92.69
2019-02-10T11:56:31.865Z,92.58
2019-02-10T11:57:31.899Z,92.69
2019-02-10T11:58:31.841Z,92.89
2019-02-10T11:59:31.839Z,93.20
2019-02-10T12:00:31.825Z,93.86
2019-02-10T12:01:31.820Z,94.48
2019-02-10T12:02:37.767Z,94.48
2019-02-10T12:03:32.815Z,94.78
2019-02-10T12:04:31.776Z,94.68
2019-02-10T12:05:31.765Z,94.33
2019-02-10T12:06:31.772Z,94.68
2019-02-10T12:07:31.743Z,95.05
2019-02-10T12:08:35.637Z,95.71
2019-02-10T12:09:31.720Z,95.50
2019-02-10T12:10:31.717Z,95.05
2019-02-10T12:11:31.699Z,95.46
2019-02-10T12:12:31.696Z,95.67
2019-02-10T12:13:31.718Z,95.05
2019-02-10T12:14:31.663Z,95.46
2019-02-10T12:15:31.658Z,94.64
2019-02-10T12:16:31.655Z,94.43
2019-02-10T12:17:31.660Z,94.64
2019-02-10T12:18:31.661Z,94.43
2019-02-10T12:19:31.609Z,94.84
2019-02-10T12:20:31.598Z,94.43
2019-02-10T12:21:31.595Z,94.64
2019-02-10T12:22:31.576Z,94.64
2019-02-10T12:23:31.588Z,94.33
2019-02-10T12:24:31.569Z,94.43
2019-02-10T12:25:31.561Z,94.64
2019-02-10T12:26:31.549Z,95.25
2019-02-10T12:27:31.519Z,95.30
2019-02-10T12:28:31.554Z,95.25
2019-02-10T12:29:31.516Z,95.87
2019-02-10T12:30:31.517Z,95.40
2019-02-10T12:31:31.476Z,95.67
2019-02-10T12:32:31.467Z,95.25
2019-02-10T12:33:31.496Z,95.77
2019-02-10T12:34:31.467Z,96.18
2019-02-10T12:35:31.437Z,94.99
2019-02-10T12:36:31.426Z,95.71
2019-02-10T12:37:32.701Z,95.67
2019-02-10T12:38:31.423Z,95.20
2019-02-10T12:39:31.386Z,94.37
2019-02-10T12:40:31.394Z,94.17
2019-02-10T12:41:31.374Z,94.01
2019-02-10T12:42:31.373Z,94.89
2019-02-10T12:43:31.388Z,93.80
2019-02-10T12:44:31.345Z,94.62
2019-02-10T12:45:31.325Z,94.52
2019-02-10T12:46:31.322Z,95.34
2019-02-10T12:47:31.299Z,95.39
2019-02-10T12:48:31.339Z,96.06
2019-02-10T12:49:31.278Z,96.93
2019-02-10T12:50:31.267Z,95.96
2019-02-10T12:51:31.254Z,95.86
2019-02-10T12:52:31.260Z,96.27